sensor_id;sensor_type;location;lat;lon;timestamp;pressure;altitude;pressure_sealevel;temperature;humidity
72330;BME280;69154;52.076;5.110;2023-05-03T00:00:22;103047.65;;;4.42;31.00
72330;BME280;69154;52.076;5.110;2023-05-03T00:02:48;103049.85;;;4.61;30.13
72330;BME280;69154;52.076;5.110;2023-05-03T00:05:13;103046.28;;;3.66;31.49
72330;BME280;69154;52.076;5.110;2023-05-03T00:07:40;103046.94;;;3.80;31.70
72330;BME280;69154;52.076;5.110;2023-05-03T00:10:05;103053.08;;;4.50;30.58
72330;BME280;69154;52.076;5.110;2023-05-03T00:12:29;103052.20;;;5.42;30.19
72330;BME280;69154;52.076;5.110;2023-05-03T00:14:55;103048.55;;;3.67;30.65
72330;BME280;69154;52.076;5.110;2023-05-03T00:17:20;103047.78;;;5.90;29.64
72330;BME280;69154;52.076;5.110;2023-05-03T00:19:46;103048.84;;;4.95;30.05
72330;BME280;69154;52.076;5.110;2023-05-03T00:22:16;103048.32;;;5.14;30.36
72330;BME280;69154;52.076;5.110;2023-05-03T00:24:37;103048.92;;;4.65;30.52
72330;BME280;69154;52.076;5.110;2023-05-03T00:27:02;103045.73;;;5.89;29.31
72330;BME280;69154;52.076;5.110;2023-05-03T00:29:27;103042.03;;;4.13;31.18
72330;BME280;69154;52.076;5.110;2023-05-03T00:31:53;103038.75;;;3.34;31.79
72330;BME280;69154;52.076;5.110;2023-05-03T00:34:18;103039.61;;;2.55;33.17
72330;BME280;69154;52.076;5.110;2023-05-03T00:36:44;103040.58;;;3.35;32.24
72330;BME280;69154;52.076;5.110;2023-05-03T00:39:09;103040.70;;;3.87;32.22
72330;BME280;69154;52.076;5.110;2023-05-03T00:41:35;103047.00;;;5.54;30.78
72330;BME280;69154;52.076;5.110;2023-05-03T00:44:00;103052.20;;;4.52;30.94
72330;BME280;69154;52.076;5.110;2023-05-03T00:46:26;103054.27;;;5.35;30.17
72330;BME280;69154;52.076;5.110;2023-05-03T00:48:51;103050.31;;;4.29;31.18
72330;BME280;69154;52.076;5.110;2023-05-03T00:51:18;103050.91;;;5.22;30.30
72330;BME280;69154;52.076;5.110;2023-05-03T00:53:42;103054.22;;;4.37;30.99
72330;BME280;69154;52.076;5.110;2023-05-03T00:56:08;103049.79;;;4.15;31.94
72330;BME280;69154;52.076;5.110;2023-05-03T00:58:34;103044.50;;;3.25;32.34
72330;BME280;69154;52.076;5.110;2023-05-03T01:00:59;103046.65;;;5.11;30.03
72330;BME280;69154;52.076;5.110;2023-05-03T01:03:24;103047.63;;;5.64;30.12
72330;BME280;69154;52.076;5.110;2023-05-03T01:05:59;103050.83;;;4.15;30.48
72330;BME280;69154;52.076;5.110;2023-05-03T01:08:21;103046.36;;;2.91;32.18
72330;BME280;69154;52.076;5.110;2023-05-03T01:10:45;103046.89;;;3.84;31.39
72330;BME280;69154;52.076;5.110;2023-05-03T01:13:11;103046.70;;;4.43;30.88
72330;BME280;69154;52.076;5.110;2023-05-03T01:15:42;103049.93;;;5.24;29.96
72330;BME280;69154;52.076;5.110;2023-05-03T01:18:00;103052.92;;;5.59;29.11
72330;BME280;69154;52.076;5.110;2023-05-03T01:20:22;103052.47;;;5.71;29.07
72330;BME280;69154;52.076;5.110;2023-05-03T01:22:57;103051.04;;;4.58;29.57
72330;BME280;69154;52.076;5.110;2023-05-03T01:25:14;103047.37;;;5.13;29.63
72330;BME280;69154;52.076;5.110;2023-05-03T01:27:39;103041.62;;;4.46;30.45
72330;BME280;69154;52.076;5.110;2023-05-03T01:30:05;103036.13;;;3.33;31.93
72330;BME280;69154;52.076;5.110;2023-05-03T01:32:34;103041.51;;;3.82;31.81
72330;BME280;69154;52.076;5.110;2023-05-03T01:35:00;103047.30;;;5.10;30.09
72330;BME280;69154;52.076;5.110;2023-05-03T01:37:20;103047.30;;;4.06;30.98
72330;BME280;69154;52.076;5.110;2023-05-03T01:39:50;103045.71;;;4.59;30.43
72330;BME280;69154;52.076;5.110;2023-05-03T01:42:11;103044.11;;;4.93;30.07
72330;BME280;69154;52.076;5.110;2023-05-03T01:44:37;103047.45;;;6.47;29.21
72330;BME280;69154;52.076;5.110;2023-05-03T01:47:02;103045.09;;;3.79;31.04
72330;BME280;69154;52.076;5.110;2023-05-03T01:49:27;103048.71;;;4.93;30.43
72330;BME280;69154;52.076;5.110;2023-05-03T01:51:53;103043.86;;;3.77;30.16
72330;BME280;69154;52.076;5.110;2023-05-03T01:54:18;103044.63;;;6.03;29.27
72330;BME280;69154;52.076;5.110;2023-05-03T01:56:44;103043.85;;;5.12;29.79
72330;BME280;69154;52.076;5.110;2023-05-03T01:59:09;103042.63;;;2.72;32.18
72330;BME280;69154;52.076;5.110;2023-05-03T02:01:35;103040.29;;;3.87;31.49
72330;BME280;69154;52.076;5.110;2023-05-03T02:04:00;103037.86;;;4.38;30.10
72330;BME280;69154;52.076;5.110;2023-05-03T02:06:25;103031.34;;;3.78;31.20
72330;BME280;69154;52.076;5.110;2023-05-03T02:08:51;103032.54;;;3.83;30.83
72330;BME280;69154;52.076;5.110;2023-05-03T02:11:16;103030.13;;;4.26;30.95
72330;BME280;69154;52.076;5.110;2023-05-03T02:13:42;103029.06;;;4.44;30.27
72330;BME280;69154;52.076;5.110;2023-05-03T02:16:07;103017.55;;;3.67;30.86
72330;BME280;69154;52.076;5.110;2023-05-03T02:18:33;103015.97;;;3.74;30.55
72330;BME280;69154;52.076;5.110;2023-05-03T02:20:58;103013.23;;;3.58;30.52
72330;BME280;69154;52.076;5.110;2023-05-03T02:23:24;103007.34;;;4.30;30.69
72330;BME280;69154;52.076;5.110;2023-05-03T02:25:49;103001.31;;;2.74;31.65
72330;BME280;69154;52.076;5.110;2023-05-03T02:28:15;102991.88;;;1.18;34.52
72330;BME280;69154;52.076;5.110;2023-05-03T02:30:41;102991.71;;;-1.21;38.35
72330;BME280;69154;52.076;5.110;2023-05-03T02:33:06;102991.32;;;0.17;37.19
72330;BME280;69154;52.076;5.110;2023-05-03T02:35:32;102985.27;;;0.71;36.98
72330;BME280;69154;52.076;5.110;2023-05-03T02:37:57;102979.42;;;0.93;35.49
72330;BME280;69154;52.076;5.110;2023-05-03T02:40:23;102981.72;;;1.17;35.32
72330;BME280;69154;52.076;5.110;2023-05-03T02:42:48;102986.60;;;2.14;33.66
72330;BME280;69154;52.076;5.110;2023-05-03T02:45:14;102997.09;;;2.85;32.78
72330;BME280;69154;52.076;5.110;2023-05-03T02:47:39;103001.88;;;2.90;32.03
72330;BME280;69154;52.076;5.110;2023-05-03T02:50:05;103009.20;;;2.74;32.02
72330;BME280;69154;52.076;5.110;2023-05-03T02:52:30;103016.09;;;4.75;29.91
72330;BME280;69154;52.076;5.110;2023-05-03T02:54:56;103010.04;;;3.90;30.00
72330;BME280;69154;52.076;5.110;2023-05-03T02:57:21;103010.29;;;3.03;31.69
72330;BME280;69154;52.076;5.110;2023-05-03T02:59:47;103016.28;;;3.36;31.27
72330;BME280;69154;52.076;5.110;2023-05-03T03:02:12;103027.90;;;4.72;30.46
72330;BME280;69154;52.076;5.110;2023-05-03T03:04:37;103029.02;;;4.82;29.72
72330;BME280;69154;52.076;5.110;2023-05-03T03:07:03;103025.47;;;3.21;30.22
72330;BME280;69154;52.076;5.110;2023-05-03T03:09:28;103028.09;;;5.48;28.62
72330;BME280;69154;52.076;5.110;2023-05-03T03:11:54;103020.91;;;2.27;30.54
72330;BME280;69154;52.076;5.110;2023-05-03T03:14:20;103018.12;;;3.03;30.72
72330;BME280;69154;52.076;5.110;2023-05-03T03:16:45;103014.95;;;3.58;29.67
72330;BME280;69154;52.076;5.110;2023-05-03T03:19:11;103014.84;;;3.59;29.89
72330;BME280;69154;52.076;5.110;2023-05-03T03:21:36;103017.80;;;4.64;29.67
72330;BME280;69154;52.076;5.110;2023-05-03T03:24:04;103015.81;;;2.97;30.42
72330;BME280;69154;52.076;5.110;2023-05-03T03:26:27;103016.43;;;5.27;28.94
72330;BME280;69154;52.076;5.110;2023-05-03T03:28:53;103011.21;;;3.57;29.86
72330;BME280;69154;52.076;5.110;2023-05-03T03:31:18;103021.81;;;4.79;29.10
72330;BME280;69154;52.076;5.110;2023-05-03T03:33:44;103021.95;;;2.67;31.14
72330;BME280;69154;52.076;5.110;2023-05-03T03:36:09;103023.43;;;3.27;30.24
72330;BME280;69154;52.076;5.110;2023-05-03T03:38:36;103023.85;;;3.80;30.50
72330;BME280;69154;52.076;5.110;2023-05-03T03:41:01;103026.58;;;3.22;30.52
72330;BME280;69154;52.076;5.110;2023-05-03T03:43:26;103024.74;;;3.11;30.68
72330;BME280;69154;52.076;5.110;2023-05-03T03:45:52;103024.80;;;3.28;30.21
72330;BME280;69154;52.076;5.110;2023-05-03T03:48:17;103023.63;;;2.66;30.46
72330;BME280;69154;52.076;5.110;2023-05-03T03:50:43;103023.82;;;3.16;29.79
72330;BME280;69154;52.076;5.110;2023-05-03T03:53:08;103028.71;;;2.76;30.46
72330;BME280;69154;52.076;5.110;2023-05-03T03:55:34;103031.40;;;3.09;30.65
72330;BME280;69154;52.076;5.110;2023-05-03T03:57:59;103032.38;;;2.64;30.36
72330;BME280;69154;52.076;5.110;2023-05-03T04:00:25;103031.01;;;3.14;30.18
72330;BME280;69154;52.076;5.110;2023-05-03T04:02:50;103032.83;;;2.15;30.48
72330;BME280;69154;52.076;5.110;2023-05-03T04:05:16;103031.74;;;3.60;30.83
72330;BME280;69154;52.076;5.110;2023-05-03T04:07:42;103029.67;;;2.18;31.59
72330;BME280;69154;52.076;5.110;2023-05-03T04:10:08;103033.78;;;2.79;31.37
72330;BME280;69154;52.076;5.110;2023-05-03T04:12:32;103034.84;;;2.90;30.56
72330;BME280;69154;52.076;5.110;2023-05-03T04:14:58;103033.74;;;2.72;30.12
72330;BME280;69154;52.076;5.110;2023-05-03T04:17:24;103039.21;;;5.52;28.39
72330;BME280;69154;52.076;5.110;2023-05-03T04:19:50;103044.64;;;3.97;28.82
72330;BME280;69154;52.076;5.110;2023-05-03T04:22:15;103052.09;;;5.15;28.31
72330;BME280;69154;52.076;5.110;2023-05-03T04:24:40;103054.08;;;3.58;29.56
72330;BME280;69154;52.076;5.110;2023-05-03T04:27:06;103057.08;;;3.85;28.95
72330;BME280;69154;52.076;5.110;2023-05-03T04:29:31;103064.81;;;5.17;28.88
72330;BME280;69154;52.076;5.110;2023-05-03T04:31:57;103075.04;;;5.22;27.56
72330;BME280;69154;52.076;5.110;2023-05-03T04:34:22;103077.97;;;7.11;26.75
72330;BME280;69154;52.076;5.110;2023-05-03T04:36:48;103082.03;;;5.42;27.64
72330;BME280;69154;52.076;5.110;2023-05-03T04:39:13;103080.85;;;4.64;27.99
72330;BME280;69154;52.076;5.110;2023-05-03T04:41:39;103079.43;;;4.14;29.15
72330;BME280;69154;52.076;5.110;2023-05-03T04:44:04;103078.48;;;3.56;29.35
72330;BME280;69154;52.076;5.110;2023-05-03T04:46:30;103078.86;;;3.18;30.28
72330;BME280;69154;52.076;5.110;2023-05-03T04:48:55;103080.14;;;4.57;28.88
72330;BME280;69154;52.076;5.110;2023-05-03T04:51:21;103078.94;;;4.96;28.19
72330;BME280;69154;52.076;5.110;2023-05-03T04:53:46;103080.86;;;4.58;27.97
72330;BME280;69154;52.076;5.110;2023-05-03T04:56:12;103077.97;;;4.67;28.37
72330;BME280;69154;52.076;5.110;2023-05-03T04:58:38;103071.95;;;4.18;29.32
72330;BME280;69154;52.076;5.110;2023-05-03T05:01:03;103072.74;;;2.64;30.07
72330;BME280;69154;52.076;5.110;2023-05-03T05:03:29;103071.32;;;3.90;29.53
72330;BME280;69154;52.076;5.110;2023-05-03T05:05:54;103077.35;;;2.34;30.24
72330;BME280;69154;52.076;5.110;2023-05-03T05:08:19;103078.13;;;3.96;29.74
72330;BME280;69154;52.076;5.110;2023-05-03T05:10:45;103080.96;;;4.00;28.88
72330;BME280;69154;52.076;5.110;2023-05-03T05:13:10;103081.58;;;2.58;30.50
72330;BME280;69154;52.076;5.110;2023-05-03T05:15:36;103081.28;;;2.72;31.60
72330;BME280;69154;52.076;5.110;2023-05-03T05:18:01;103083.90;;;2.57;30.78
72330;BME280;69154;52.076;5.110;2023-05-03T05:20:27;103081.84;;;2.32;31.58
72330;BME280;69154;52.076;5.110;2023-05-03T05:22:52;103088.00;;;1.63;31.99
72330;BME280;69154;52.076;5.110;2023-05-03T05:25:18;103092.97;;;3.34;30.69
72330;BME280;69154;52.076;5.110;2023-05-03T05:27:43;103093.62;;;2.12;31.48
72330;BME280;69154;52.076;5.110;2023-05-03T05:30:09;103091.12;;;2.63;31.41
72330;BME280;69154;52.076;5.110;2023-05-03T05:32:35;103089.83;;;3.63;30.81
72330;BME280;69154;52.076;5.110;2023-05-03T05:34:59;103084.93;;;3.79;29.73
72330;BME280;69154;52.076;5.110;2023-05-03T05:37:25;103085.41;;;5.09;28.75
72330;BME280;69154;52.076;5.110;2023-05-03T05:39:50;103085.32;;;4.17;28.63
72330;BME280;69154;52.076;5.110;2023-05-03T05:42:16;103085.28;;;4.86;29.37
72330;BME280;69154;52.076;5.110;2023-05-03T05:44:41;103087.71;;;4.57;28.34
72330;BME280;69154;52.076;5.110;2023-05-03T05:47:07;103092.13;;;5.05;27.80
72330;BME280;69154;52.076;5.110;2023-05-03T05:49:32;103090.07;;;8.04;25.53
72330;BME280;69154;52.076;5.110;2023-05-03T05:51:57;103094.62;;;4.73;26.94
72330;BME280;69154;52.076;5.110;2023-05-03T05:54:22;103092.55;;;8.09;24.62
72330;BME280;69154;52.076;5.110;2023-05-03T05:56:48;103095.76;;;5.83;26.36
72330;BME280;69154;52.076;5.110;2023-05-03T05:59:13;103099.26;;;6.34;26.61
72330;BME280;69154;52.076;5.110;2023-05-03T06:01:38;103106.32;;;5.93;26.44
72330;BME280;69154;52.076;5.110;2023-05-03T06:04:03;103099.15;;;7.05;25.88
72330;BME280;69154;52.076;5.110;2023-05-03T06:06:29;103102.14;;;8.06;25.56
72330;BME280;69154;52.076;5.110;2023-05-03T06:08:54;103099.27;;;5.96;26.71
72330;BME280;69154;52.076;5.110;2023-05-03T06:11:19;103097.68;;;6.47;26.02
72330;BME280;69154;52.076;5.110;2023-05-03T06:13:44;103094.97;;;7.30;26.45
72330;BME280;69154;52.076;5.110;2023-05-03T06:16:10;103097.04;;;7.46;24.79
72330;BME280;69154;52.076;5.110;2023-05-03T06:18:36;103093.99;;;8.24;24.88
72330;BME280;69154;52.076;5.110;2023-05-03T06:21:00;103096.36;;;6.14;26.39
72330;BME280;69154;52.076;5.110;2023-05-03T06:23:26;103095.14;;;6.54;26.26
72330;BME280;69154;52.076;5.110;2023-05-03T06:25:51;103094.43;;;5.03;27.62
72330;BME280;69154;52.076;5.110;2023-05-03T06:28:17;103085.38;;;7.61;27.03
72330;BME280;69154;52.076;5.110;2023-05-03T06:30:47;103088.58;;;7.03;25.66
72330;BME280;69154;52.076;5.110;2023-05-03T06:33:11;103088.79;;;6.74;25.57
72330;BME280;69154;52.076;5.110;2023-05-03T06:35:33;103086.99;;;7.10;26.89
72330;BME280;69154;52.076;5.110;2023-05-03T06:37:58;103089.82;;;4.26;28.30
72330;BME280;69154;52.076;5.110;2023-05-03T06:40:23;103086.89;;;3.94;29.42
72330;BME280;69154;52.076;5.110;2023-05-03T06:42:49;103085.04;;;3.78;29.49
72330;BME280;69154;52.076;5.110;2023-05-03T06:45:14;103084.55;;;3.73;29.33
72330;BME280;69154;52.076;5.110;2023-05-03T06:47:39;103081.78;;;7.33;26.89
72330;BME280;69154;52.076;5.110;2023-05-03T06:50:06;103084.67;;;6.01;26.41
72330;BME280;69154;52.076;5.110;2023-05-03T06:52:30;103080.83;;;4.72;28.36
72330;BME280;69154;52.076;5.110;2023-05-03T06:54:56;103083.37;;;3.51;27.94
72330;BME280;69154;52.076;5.110;2023-05-03T06:57:21;103075.59;;;4.48;29.10
72330;BME280;69154;52.076;5.110;2023-05-03T06:59:46;103069.47;;;4.30;28.87
72330;BME280;69154;52.076;5.110;2023-05-03T07:02:11;103069.16;;;5.83;28.42
72330;BME280;69154;52.076;5.110;2023-05-03T07:04:37;103070.18;;;3.40;29.55
72330;BME280;69154;52.076;5.110;2023-05-03T07:07:02;103067.50;;;3.25;30.58
72330;BME280;69154;52.076;5.110;2023-05-03T07:09:27;103068.73;;;3.78;30.85
72330;BME280;69154;52.076;5.110;2023-05-03T07:11:53;103062.89;;;3.47;29.03
72330;BME280;69154;52.076;5.110;2023-05-03T07:14:18;103065.42;;;3.43;30.47
72330;BME280;69154;52.076;5.110;2023-05-03T07:16:43;103060.99;;;2.90;29.81
72330;BME280;69154;52.076;5.110;2023-05-03T07:19:09;103054.03;;;3.16;30.57
72330;BME280;69154;52.076;5.110;2023-05-03T07:21:34;103054.64;;;6.11;27.86
72330;BME280;69154;52.076;5.110;2023-05-03T07:23:59;103052.11;;;5.77;26.41
72330;BME280;69154;52.076;5.110;2023-05-03T07:26:25;103048.23;;;6.97;26.04
72330;BME280;69154;52.076;5.110;2023-05-03T07:28:50;103048.03;;;3.50;28.89
72330;BME280;69154;52.076;5.110;2023-05-03T07:31:15;103046.12;;;3.68;30.07
72330;BME280;69154;52.076;5.110;2023-05-03T07:33:41;103043.60;;;4.50;28.69
72330;BME280;69154;52.076;5.110;2023-05-03T07:36:07;103047.46;;;0.92;32.90
72330;BME280;69154;52.076;5.110;2023-05-03T07:38:31;103039.18;;;4.20;30.85
72330;BME280;69154;52.076;5.110;2023-05-03T07:40:57;103035.07;;;1.97;31.45
72330;BME280;69154;52.076;5.110;2023-05-03T07:43:22;103032.20;;;3.11;31.20
72330;BME280;69154;52.076;5.110;2023-05-03T07:45:47;103027.72;;;3.25;30.93
72330;BME280;69154;52.076;5.110;2023-05-03T07:48:13;103024.16;;;4.93;30.40
72330;BME280;69154;52.076;5.110;2023-05-03T07:50:40;103027.44;;;7.39;27.13
72330;BME280;69154;52.076;5.110;2023-05-03T07:53:03;103034.90;;;6.13;26.85
72330;BME280;69154;52.076;5.110;2023-05-03T07:55:29;103037.51;;;5.59;27.34
72330;BME280;69154;52.076;5.110;2023-05-03T07:57:54;103038.24;;;7.61;26.29
72330;BME280;69154;52.076;5.110;2023-05-03T08:00:19;103029.86;;;7.88;24.84
72330;BME280;69154;52.076;5.110;2023-05-03T08:02:44;103021.23;;;6.71;25.22
72330;BME280;69154;52.076;5.110;2023-05-03T08:05:10;103029.16;;;3.61;28.91
72330;BME280;69154;52.076;5.110;2023-05-03T08:07:36;103028.01;;;5.58;29.35
72330;BME280;69154;52.076;5.110;2023-05-03T08:10:02;103025.33;;;5.81;26.85
72330;BME280;69154;52.076;5.110;2023-05-03T08:12:26;103024.16;;;6.34;27.71
72330;BME280;69154;52.076;5.110;2023-05-03T08:14:51;103018.74;;;6.90;25.25
72330;BME280;69154;52.076;5.110;2023-05-03T08:17:16;103011.17;;;9.63;24.03
72330;BME280;69154;52.076;5.110;2023-05-03T08:19:42;103007.94;;;10.40;22.64
72330;BME280;69154;52.076;5.110;2023-05-03T08:22:07;103003.15;;;3.97;28.35
72330;BME280;69154;52.076;5.110;2023-05-03T08:24:32;103003.33;;;6.72;27.22
72330;BME280;69154;52.076;5.110;2023-05-03T08:26:57;103008.00;;;7.21;25.45
72330;BME280;69154;52.076;5.110;2023-05-03T08:29:23;103007.73;;;6.17;26.99
72330;BME280;69154;52.076;5.110;2023-05-03T08:31:48;103006.00;;;6.65;26.21
72330;BME280;69154;52.076;5.110;2023-05-03T08:34:14;103011.33;;;7.13;25.11
72330;BME280;69154;52.076;5.110;2023-05-03T08:36:39;103017.01;;;5.78;27.17
72330;BME280;69154;52.076;5.110;2023-05-03T08:39:04;103020.01;;;5.42;27.61
72330;BME280;69154;52.076;5.110;2023-05-03T08:41:30;103019.21;;;5.78;27.12
72330;BME280;69154;52.076;5.110;2023-05-03T08:43:56;103011.61;;;7.30;25.14
72330;BME280;69154;52.076;5.110;2023-05-03T08:46:20;103017.09;;;5.54;26.78
72330;BME280;69154;52.076;5.110;2023-05-03T08:48:46;103015.05;;;6.20;26.70
72330;BME280;69154;52.076;5.110;2023-05-03T08:51:11;103020.84;;;5.09;27.29
72330;BME280;69154;52.076;5.110;2023-05-03T08:53:36;103015.20;;;6.23;26.49
72330;BME280;69154;52.076;5.110;2023-05-03T08:56:05;103016.64;;;6.75;26.20
72330;BME280;69154;52.076;5.110;2023-05-03T08:58:26;103022.75;;;5.89;28.08
72330;BME280;69154;52.076;5.110;2023-05-03T09:00:52;103024.50;;;5.23;26.97
72330;BME280;69154;52.076;5.110;2023-05-03T09:03:17;103026.63;;;5.91;27.25
72330;BME280;69154;52.076;5.110;2023-05-03T09:05:42;103030.04;;;5.60;28.07
72330;BME280;69154;52.076;5.110;2023-05-03T09:08:09;103026.80;;;6.26;26.50
72330;BME280;69154;52.076;5.110;2023-05-03T09:10:36;103027.02;;;10.01;24.16
72330;BME280;69154;52.076;5.110;2023-05-03T09:12:59;103031.05;;;9.22;23.29
72330;BME280;69154;52.076;5.110;2023-05-03T09:15:23;103028.99;;;8.67;23.82
72330;BME280;69154;52.076;5.110;2023-05-03T09:18:05;103031.83;;;10.62;22.05
72330;BME280;69154;52.076;5.110;2023-05-03T09:20:14;103031.59;;;7.27;24.26
72330;BME280;69154;52.076;5.110;2023-05-03T09:22:49;103021.96;;;9.61;23.17
72330;BME280;69154;52.076;5.110;2023-05-03T09:25:05;103016.92;;;11.78;20.96
72330;BME280;69154;52.076;5.110;2023-05-03T09:27:29;103021.99;;;8.79;24.32
72330;BME280;69154;52.076;5.110;2023-05-03T09:29:55;103022.31;;;7.76;23.92
72330;BME280;69154;52.076;5.110;2023-05-03T09:32:21;103023.66;;;11.42;22.80
72330;BME280;69154;52.076;5.110;2023-05-03T09:34:45;103022.25;;;12.12;21.31
72330;BME280;69154;52.076;5.110;2023-05-03T09:37:11;103019.75;;;12.44;21.38
72330;BME280;69154;52.076;5.110;2023-05-03T09:39:36;103022.31;;;13.16;19.69
72330;BME280;69154;52.076;5.110;2023-05-03T09:42:09;103024.89;;;16.00;19.41
72330;BME280;69154;52.076;5.110;2023-05-03T09:44:40;103016.63;;;19.85;15.65
72330;BME280;69154;52.076;5.110;2023-05-03T09:47:07;103014.63;;;18.42;15.44
72330;BME280;69154;52.076;5.110;2023-05-03T09:49:16;103016.90;;;21.53;14.80
72330;BME280;69154;52.076;5.110;2023-05-03T09:51:41;103017.37;;;21.09;13.91
72330;BME280;69154;52.076;5.110;2023-05-03T09:54:08;103013.08;;;15.33;16.44
72330;BME280;69154;52.076;5.110;2023-05-03T09:56:32;103011.30;;;16.75;16.90
72330;BME280;69154;52.076;5.110;2023-05-03T09:58:57;103010.34;;;14.57;17.71
72330;BME280;69154;52.076;5.110;2023-05-03T10:01:23;103004.99;;;17.60;16.49
72330;BME280;69154;52.076;5.110;2023-05-03T10:03:48;103000.61;;;19.10;15.46
72330;BME280;69154;52.076;5.110;2023-05-03T10:06:21;103000.00;;;21.11;14.49
72330;BME280;69154;52.076;5.110;2023-05-03T10:08:40;102999.84;;;21.90;13.75
72330;BME280;69154;52.076;5.110;2023-05-03T10:11:07;102990.87;;;19.77;13.55
72330;BME280;69154;52.076;5.110;2023-05-03T10:13:30;102991.96;;;20.95;13.31
72330;BME280;69154;52.076;5.110;2023-05-03T10:15:59;102992.04;;;21.96;13.33
72330;BME280;69154;52.076;5.110;2023-05-03T10:18:23;102990.60;;;22.24;13.14
72330;BME280;69154;52.076;5.110;2023-05-03T10:20:51;102991.89;;;14.49;16.30
72330;BME280;69154;52.076;5.110;2023-05-03T10:23:13;102987.57;;;14.62;16.91
72330;BME280;69154;52.076;5.110;2023-05-03T10:26:11;102986.44;;;17.32;15.71
72330;BME280;69154;52.076;5.110;2023-05-03T10:28:06;102993.85;;;14.02;17.58
72330;BME280;69154;52.076;5.110;2023-05-03T10:30:32;102986.20;;;19.84;15.22
72330;BME280;69154;52.076;5.110;2023-05-03T10:32:56;102986.88;;;20.48;14.41
72330;BME280;69154;52.076;5.110;2023-05-03T10:35:25;102983.39;;;23.07;12.31
72330;BME280;69154;52.076;5.110;2023-05-03T10:37:48;102983.08;;;18.99;13.90
72330;BME280;69154;52.076;5.110;2023-05-03T10:40:15;102974.40;;;19.88;13.79
72330;BME280;69154;52.076;5.110;2023-05-03T10:42:43;102975.67;;;18.22;14.71
72330;BME280;69154;52.076;5.110;2023-05-03T10:45:07;102976.68;;;18.75;15.37
72330;BME280;69154;52.076;5.110;2023-05-03T10:47:31;102975.02;;;18.63;14.37
72330;BME280;69154;52.076;5.110;2023-05-03T10:50:29;102974.08;;;16.07;15.36
72330;BME280;69154;52.076;5.110;2023-05-03T10:52:55;102973.96;;;16.78;16.26
72330;BME280;69154;52.076;5.110;2023-05-03T10:54:48;102970.61;;;18.70;14.77
72330;BME280;69154;52.076;5.110;2023-05-03T10:57:14;102966.90;;;22.98;12.48
72330;BME280;69154;52.076;5.110;2023-05-03T10:59:45;102967.20;;;18.15;13.14
72330;BME280;69154;52.076;5.110;2023-05-03T11:02:07;102961.03;;;15.01;15.81
72330;BME280;69154;52.076;5.110;2023-05-03T11:04:37;102959.39;;;21.80;12.93
72330;BME280;69154;52.076;5.110;2023-05-03T11:06:56;102956.04;;;20.92;13.81
72330;BME280;69154;52.076;5.110;2023-05-03T11:09:29;102948.81;;;22.63;12.44
72330;BME280;69154;52.076;5.110;2023-05-03T11:11:48;102944.53;;;17.58;13.83
72330;BME280;69154;52.076;5.110;2023-05-03T11:14:14;102936.59;;;20.97;13.72
72330;BME280;69154;52.076;5.110;2023-05-03T11:16:40;102933.05;;;16.81;14.99
72330;BME280;69154;52.076;5.110;2023-05-03T11:19:05;102936.02;;;12.57;17.85
72330;BME280;69154;52.076;5.110;2023-05-03T11:21:31;102935.39;;;17.56;15.45
72330;BME280;69154;52.076;5.110;2023-05-03T11:23:57;102934.35;;;18.16;14.65
72330;BME280;69154;52.076;5.110;2023-05-03T11:26:23;102934.47;;;19.94;13.99
72330;BME280;69154;52.076;5.110;2023-05-03T11:28:48;102924.78;;;17.33;14.87
72330;BME280;69154;52.076;5.110;2023-05-03T11:31:14;102930.97;;;18.11;15.32
72330;BME280;69154;52.076;5.110;2023-05-03T11:33:40;102926.67;;;19.79;15.07
72330;BME280;69154;52.076;5.110;2023-05-03T11:36:07;102922.49;;;22.37;13.53
72330;BME280;69154;52.076;5.110;2023-05-03T11:38:32;102923.57;;;19.53;14.23
72330;BME280;69154;52.076;5.110;2023-05-03T11:40:57;102918.73;;;16.87;14.57
72330;BME280;69154;52.076;5.110;2023-05-03T11:43:23;102916.03;;;15.75;15.48
72330;BME280;69154;52.076;5.110;2023-05-03T11:45:50;102917.57;;;17.03;15.00
72330;BME280;69154;52.076;5.110;2023-05-03T11:48:15;102919.73;;;16.55;15.81
72330;BME280;69154;52.076;5.110;2023-05-03T11:50:45;102915.51;;;12.05;18.74
72330;BME280;69154;52.076;5.110;2023-05-03T11:53:06;102910.41;;;12.35;19.63
72330;BME280;69154;52.076;5.110;2023-05-03T11:55:32;102911.09;;;15.62;17.84
72330;BME280;69154;52.076;5.110;2023-05-03T11:57:59;102908.15;;;17.10;17.19
72330;BME280;69154;52.076;5.110;2023-05-03T12:00:24;102905.59;;;14.79;17.14
72330;BME280;69154;52.076;5.110;2023-05-03T12:02:49;102896.57;;;20.67;13.67
72330;BME280;69154;52.076;5.110;2023-05-03T12:05:15;102892.25;;;20.41;13.63
72330;BME280;69154;52.076;5.110;2023-05-03T12:07:41;102890.20;;;14.95;16.03
72330;BME280;69154;52.076;5.110;2023-05-03T12:10:14;102885.15;;;17.57;16.02
72330;BME280;69154;52.076;5.110;2023-05-03T12:12:32;102879.11;;;19.48;14.28
72330;BME280;69154;52.076;5.110;2023-05-03T12:14:59;102868.65;;;21.32;13.21
72330;BME280;69154;52.076;5.110;2023-05-03T12:17:39;102867.37;;;23.34;11.96
72330;BME280;69154;52.076;5.110;2023-05-03T12:19:49;102868.67;;;17.45;13.66
72330;BME280;69154;52.076;5.110;2023-05-03T12:22:18;102867.88;;;18.69;14.12
72330;BME280;69154;52.076;5.110;2023-05-03T12:24:41;102863.46;;;20.11;13.30
72330;BME280;69154;52.076;5.110;2023-05-03T12:27:06;102865.04;;;19.88;13.78
72330;BME280;69154;52.076;5.110;2023-05-03T12:29:32;102855.91;;;23.40;12.17
72330;BME280;69154;52.076;5.110;2023-05-03T12:31:58;102848.89;;;27.14;10.24
72330;BME280;69154;52.076;5.110;2023-05-03T12:34:23;102848.99;;;22.95;10.37
72330;BME280;69154;52.076;5.110;2023-05-03T12:36:49;102844.15;;;19.31;12.77
72330;BME280;69154;52.076;5.110;2023-05-03T12:39:15;102843.58;;;14.35;15.78
72330;BME280;69154;52.076;5.110;2023-05-03T12:41:40;102837.83;;;19.78;13.98
72330;BME280;69154;52.076;5.110;2023-05-03T12:44:06;102830.58;;;21.57;13.36
72330;BME280;69154;52.076;5.110;2023-05-03T12:46:32;102827.58;;;20.26;13.19